createdAt,value
2018-02-18T00:00:56.632Z,60.96
2018-02-18T00:01:59.990Z,60.96
2018-02-18T00:03:03.490Z,60.96
2018-02-18T00:04:06.977Z,60.97
2018-02-18T00:05:10.316Z,60.97
2018-02-18T00:06:13.674Z,61.00
2018-02-18T00:07:17.071Z,61.04
2018-02-18T00:08:20.386Z,61.05
2018-02-18T00:09:23.721Z,61.06
2018-02-18T00:10:27.080Z,61.05
2018-02-18T00:11:30.494Z,61.06
2018-02-18T00:12:33.808Z,61.05
2018-02-18T00:13:37.184Z,61.08
2018-02-18T00:14:40.961Z,61.08
2018-02-18T00:15:44.409Z,61.09
2018-02-18T00:16:47.914Z,61.12
2018-02-18T00:17:51.232Z,61.12
2018-02-18T00:18:54.664Z,61.14
2018-02-18T00:19:58.111Z,61.15
2018-02-18T00:21:01.510Z,61.16
2018-02-18T00:22:04.886Z,61.17
2018-02-18T00:23:08.269Z,61.19
2018-02-18T00:24:11.638Z,61.22
2018-02-18T00:25:15.043Z,61.20
2018-02-18T00:26:18.459Z,61.20
2018-02-18T00:27:21.852Z,61.19
2018-02-18T00:28:25.169Z,61.21
2018-02-18T00:29:28.587Z,61.22
2018-02-18T00:30:31.946Z,61.22
2018-02-18T00:31:35.257Z,61.21
2018-02-18T00:32:38.574Z,61.20
2018-02-18T00:33:42.016Z,61.21
2018-02-18T00:34:45.385Z,61.20
2018-02-18T00:35:48.776Z,61.18
2018-02-18T00:36:52.141Z,61.18
2018-02-18T00:37:55.452Z,61.17
2018-02-18T00:38:58.828Z,61.17
2018-02-18T00:40:02.198Z,61.18
2018-02-18T00:41:05.534Z,61.17
2018-02-18T00:42:08.869Z,61.17
2018-02-18T00:43:12.241Z,61.19
2018-02-18T00:44:15.555Z,61.18
2018-02-18T00:45:19.004Z,61.18
2018-02-18T00:46:22.360Z,61.15
2018-02-18T00:47:25.793Z,61.14
2018-02-18T00:48:29.293Z,61.14
2018-02-18T00:49:32.702Z,61.16
2018-02-18T00:50:36.047Z,61.15
2018-02-18T00:51:39.507Z,61.18
2018-02-18T00:52:42.820Z,61.18
2018-02-18T00:53:46.163Z,61.18
2018-02-18T00:54:49.531Z,61.17
2018-02-18T00:55:52.925Z,61.16
2018-02-18T00:56:56.246Z,61.17
2018-02-18T00:57:59.619Z,61.14
2018-02-18T00:59:02.981Z,61.16
2018-02-18T01:00:06.545Z,61.19
2018-02-18T01:01:10.067Z,61.19
2018-02-18T01:02:13.405Z,61.21
2018-02-18T01:03:17.039Z,61.23
2018-02-18T01:04:20.493Z,61.24
2018-02-18T01:05:23.914Z,61.26
2018-02-18T01:06:27.376Z,61.29
2018-02-18T01:07:30.833Z,61.29
2018-02-18T01:08:34.980Z,61.29
2018-02-18T01:09:38.352Z,61.29
2018-02-18T01:10:41.720Z,61.29
2018-02-18T01:11:45.103Z,61.30
2018-02-18T01:12:48.658Z,61.31
2018-02-18T01:13:52.019Z,61.30
2018-02-18T01:14:55.464Z,61.31
2018-02-18T01:15:58.928Z,61.31
2018-02-18T01:17:02.282Z,61.31
2018-02-18T01:18:05.631Z,61.32
2018-02-18T01:19:09.568Z,61.33
2018-02-18T01:20:12.921Z,61.35
2018-02-18T01:21:16.280Z,61.34
2018-02-18T01:22:19.788Z,61.37
2018-02-18T01:23:23.159Z,61.39
2018-02-18T01:24:26.495Z,61.41
2018-02-18T01:25:29.845Z,61.42
2018-02-18T01:26:33.255Z,61.46
2018-02-18T01:27:36.729Z,61.50
2018-02-18T01:28:40.133Z,61.52
2018-02-18T01:29:43.436Z,61.54
2018-02-18T01:30:46.796Z,61.58
2018-02-18T01:31:50.122Z,61.58
2018-02-18T01:32:53.474Z,61.61
2018-02-18T01:33:57.005Z,61.59
2018-02-18T01:35:00.452Z,61.59
2018-02-18T01:36:03.884Z,61.62
2018-02-18T01:37:07.165Z,61.62
2018-02-18T01:38:10.647Z,61.62
2018-02-18T01:39:14.023Z,61.62
2018-02-18T01:40:17.716Z,61.67
2018-02-18T01:41:21.063Z,61.61
2018-02-18T01:42:24.422Z,61.61
2018-02-18T01:43:27.995Z,61.63
2018-02-18T01:44:31.341Z,61.64
2018-02-18T01:45:34.817Z,61.64
2018-02-18T01:46:38.316Z,61.65
2018-02-18T01:47:42.449Z,61.66
2018-02-18T01:48:45.796Z,61.68
2018-02-18T01:49:49.284Z,61.71
2018-02-18T01:50:52.612Z,61.73
2018-02-18T01:51:56.119Z,61.73
2018-02-18T01:52:59.501Z,61.75
2018-02-18T01:54:02.880Z,61.77
2018-02-18T01:55:06.398Z,61.80
2018-02-18T01:56:09.791Z,61.81
2018-02-18T01:57:13.133Z,61.81
2018-02-18T01:58:16.480Z,61.83
2018-02-18T01:59:19.949Z,61.84
2018-02-18T02:00:23.341Z,61.86
2018-02-18T02:01:26.752Z,61.88
2018-02-18T02:02:30.137Z,61.90
2018-02-18T02:03:33.578Z,61.91
2018-02-18T02:04:36.946Z,61.92
2018-02-18T02:05:40.287Z,61.93
2018-02-18T02:06:43.882Z,61.95
2018-02-18T02:07:47.262Z,61.96
2018-02-18T02:08:50.681Z,61.99
2018-02-18T02:09:54.027Z,61.99
2018-02-18T02:10:57.598Z,62.00
2018-02-18T02:12:00.909Z,62.00
2018-02-18T02:13:04.336Z,61.99
2018-02-18T02:14:08.499Z,62.02
2018-02-18T02:15:11.826Z,62.04
2018-02-18T02:16:15.169Z,62.04
2018-02-18T02:17:18.584Z,62.04
2018-02-18T02:18:21.963Z,62.05
2018-02-18T02:19:25.403Z,62.06
2018-02-18T02:20:29.100Z,62.09
2018-02-18T02:21:32.521Z,62.13
2018-02-18T02:22:35.895Z,62.15
2018-02-18T02:23:39.230Z,62.17
2018-02-18T02:24:42.613Z,62.17
2018-02-18T02:25:46.022Z,62.20
2018-02-18T02:26:49.345Z,62.21
2018-02-18T02:27:52.768Z,62.22
2018-02-18T02:28:56.090Z,62.23
2018-02-18T02:29:59.743Z,62.23
2018-02-18T02:31:03.075Z,62.24
2018-02-18T02:32:06.512Z,62.25
2018-02-18T02:33:09.981Z,62.27
2018-02-18T02:34:13.338Z,62.28
2018-02-18T02:35:16.698Z,62.28
2018-02-18T02:36:20.093Z,62.28
2018-02-18T02:37:23.411Z,62.27
2018-02-18T02:38:26.813Z,62.32
2018-02-18T02:39:30.154Z,62.35
2018-02-18T02:40:33.543Z,62.39
2018-02-18T02:41:36.937Z,62.41
2018-02-18T02:42:40.269Z,62.45
2018-02-18T02:43:43.606Z,62.48
2018-02-18T02:44:47.056Z,62.52
2018-02-18T02:45:50.388Z,62.55
2018-02-18T02:46:53.750Z,62.58
2018-02-18T02:47:57.753Z,62.62
2018-02-18T02:49:01.118Z,62.63
2018-02-18T02:50:04.491Z,62.66
2018-02-18T02:51:07.891Z,62.68
2018-02-18T02:52:11.338Z,62.73
2018-02-18T02:53:14.742Z,62.76
2018-02-18T02:54:18.204Z,62.77
2018-02-18T02:55:21.609Z,62.79
2018-02-18T02:56:25.034Z,62.81
2018-02-18T02:57:29.141Z,62.84
2018-02-18T02:58:32.605Z,62.86
2018-02-18T02:59:35.928Z,62.88
2018-02-18T03:00:39.299Z,62.91
2018-02-18T03:01:42.749Z,62.95
2018-02-18T03:02:46.159Z,62.98
2018-02-18T03:03:49.676Z,62.98
2018-02-18T03:04:53.142Z,63.01
2018-02-18T03:05:56.546Z,63.03
2018-02-18T03:06:59.871Z,63.04
2018-02-18T03:08:03.740Z,63.03
2018-02-18T03:09:07.045Z,63.04
2018-02-18T03:10:10.428Z,63.02
2018-02-18T03:11:13.780Z,63.02
2018-02-18T03:12:17.125Z,63.04
2018-02-18T03:13:20.896Z,63.06
2018-02-18T03:14:24.332Z,63.06
2018-02-18T03:15:27.762Z,63.07
2018-02-18T03:16:31.273Z,63.09
2018-02-18T03:17:34.700Z,63.11
2018-02-18T03:18:38.139Z,63.12
2018-02-18T03:19:41.488Z,63.13
2018-02-18T03:20:45.793Z,63.14
2018-02-18T03:21:49.263Z,63.16
2018-02-18T03:22:53.469Z,63.16
2018-02-18T03:23:57.233Z,63.16
2018-02-18T03:25:00.586Z,63.17
2018-02-18T03:26:03.962Z,63.18
2018-02-18T03:27:07.456Z,63.17
2018-02-18T03:28:10.900Z,63.19
2018-02-18T03:29:14.646Z,63.18
2018-02-18T03:30:18.019Z,63.19
2018-02-18T03:31:21.326Z,63.18
2018-02-18T03:32:24.781Z,63.21
2018-02-18T03:33:28.117Z,63.21
2018-02-18T03:34:31.487Z,63.22
2018-02-18T03:35:34.920Z,63.25
2018-02-18T03:36:38.279Z,63.25
2018-02-18T03:37:41.626Z,63.28
2018-02-18T03:38:44.998Z,63.28
2018-02-18T03:39:48.373Z,63.28
2018-02-18T03:40:51.926Z,63.29
2018-02-18T03:41:55.290Z,63.27
2018-02-18T03:42:58.677Z,63.29
2018-02-18T03:44:02.062Z,63.34
2018-02-18T03:45:05.444Z,63.35
2018-02-18T03:46:08.860Z,63.37
2018-02-18T03:47:12.165Z,63.38
2018-02-18T03:48:15.608Z,63.40
2018-02-18T03:49:18.982Z,63.42
2018-02-18T03:50:22.330Z,63.46
2018-02-18T03:51:25.634Z,63.50
2018-02-18T03:52:29.022Z,63.49
2018-02-18T03:53:32.502Z,63.56
2018-02-18T03:54:35.924Z,63.57
2018-02-18T03:55:39.306Z,63.58
2018-02-18T03:56:42.668Z,63.58
2018-02-18T03:57:46.141Z,63.60
2018-02-18T03:58:49.688Z,63.62
2018-02-18T03:59:52.997Z,63.63
2018-02-18T04:00:56.389Z,63.62
2018-02-18T04:01:59.734Z,63.63
2018-02-18T04:03:03.114Z,63.63
2018-02-18T04:04:06.472Z,63.63
2018-02-18T04:05:09.857Z,63.65
2018-02-18T04:06:13.289Z,63.69
2018-02-18T04:07:17.155Z,63.73
2018-02-18T04:08:20.728Z,63.76
2018-02-18T04:09:24.148Z,63.77
2018-02-18T04:10:27.588Z,63.80
2018-02-18T04:11:30.944Z,63.81
2018-02-18T04:12:34.256Z,63.83
2018-02-18T04:13:37.664Z,63.87
2018-02-18T04:14:41.027Z,63.90
2018-02-18T04:15:44.329Z,63.95
2018-02-18T04:16:47.694Z,63.99
2018-02-18T04:17:51.075Z,64.02
2018-02-18T04:18:54.425Z,64.05
2018-02-18T04:19:57.753Z,64.08
2018-02-18T04:21:01.184Z,64.10
2018-02-18T04:22:04.662Z,64.14
2018-02-18T04:23:07.976Z,64.18
2018-02-18T04:24:11.326Z,64.20
2018-02-18T04:25:14.828Z,64.23
2018-02-18T04:26:18.278Z,64.27
2018-02-18T04:27:21.666Z,64.28
2018-02-18T04:28:25.035Z,64.31
2018-02-18T04:29:28.436Z,64.34
2018-02-18T04:30:31.902Z,64.35
2018-02-18T04:31:35.348Z,64.38
2018-02-18T04:32:38.780Z,64.39
2018-02-18T04:33:42.181Z,64.41
2018-02-18T04:34:45.629Z,64.43
2018-02-18T04:35:49.064Z,64.44
2018-02-18T04:36:52.600Z,64.45
2018-02-18T04:37:56.020Z,64.47
2018-02-18T04:38:59.435Z,64.47
2018-02-18T04:40:02.783Z,64.47
2018-02-18T04:41:06.205Z,64.47
2018-02-18T04:42:09.535Z,64.49
2018-02-18T04:43:13.069Z,64.50
2018-02-18T04:44:16.423Z,64.49
2018-02-18T04:45:19.797Z,64.49
2018-02-18T04:46:23.301Z,64.50
2018-02-18T04:47:26.616Z,64.48
2018-02-18T04:48:30.420Z,64.49
2018-02-18T04:49:34.699Z,64.51
2018-02-18T04:50:41.558Z,64.55
2018-02-18T04:51:45.025Z,64.59
2018-02-18T04:52:48.448Z,64.60
2018-02-18T04:53:51.954Z,64.63
2018-02-18T04:54:55.374Z,64.65
2018-02-18T04:55:59.102Z,64.66
2018-02-18T04:57:02.496Z,64.68
2018-02-18T04:58:05.882Z,64.71
2018-02-18T04:59:09.220Z,64.76
2018-02-18T05:01:22.216Z,64.84
2018-02-18T05:02:25.650Z,64.87
2018-02-18T05:03:29.054Z,64.89
2018-02-18T05:04:32.469Z,64.92
2018-02-18T05:05:35.853Z,64.94
2018-02-18T05:06:40.002Z,64.96
2018-02-18T05:07:43.387Z,65.00
2018-02-18T05:08:46.832Z,65.01
2018-02-18T05:09:50.236Z,65.00
2018-02-18T05:10:53.601Z,65.02
2018-02-18T05:11:56.974Z,65.05
2018-02-18T05:13:00.428Z,65.08
2018-02-18T05:14:03.734Z,65.13
2018-02-18T05:15:08.077Z,65.13
2018-02-18T05:16:11.380Z,65.15
2018-02-18T05:17:14.755Z,65.17
2018-02-18T05:18:18.232Z,65.17
2018-02-18T05:19:21.561Z,65.17
2018-02-18T05:20:24.959Z,65.20
2018-02-18T05:21:28.345Z,65.21
2018-02-18T05:22:31.686Z,65.23
2018-02-18T05:23:35.055Z,65.22
2018-02-18T05:24:38.544Z,65.28
2018-02-18T05:25:41.937Z,65.29
2018-02-18T05:26:45.505Z,65.32
2018-02-18T05:27:48.928Z,65.35
2018-02-18T05:28:52.458Z,65.39
2018-02-18T05:29:55.806Z,65.42
2018-02-18T05:30:59.197Z,65.45
2018-02-18T05:32:02.528Z,65.47
2018-02-18T05:33:05.900Z,65.54
2018-02-18T05:34:09.228Z,65.56
2018-02-18T05:35:13.465Z,65.55
2018-02-18T05:36:16.795Z,65.57
2018-02-18T05:37:20.245Z,65.61
2018-02-18T05:38:23.867Z,65.64
2018-02-18T05:39:27.481Z,65.67
2018-02-18T05:40:30.872Z,65.68
2018-02-18T05:41:34.224Z,65.68
2018-02-18T05:42:37.574Z,65.75
2018-02-18T05:43:40.949Z,65.77
2018-02-18T05:44:44.259Z,65.80
2018-02-18T05:45:47.594Z,65.84
2018-02-18T05:46:51.097Z,65.87
2018-02-18T05:47:55.004Z,65.90
2018-02-18T05:48:58.398Z,65.92
2018-02-18T05:50:01.731Z,65.92
2018-02-18T05:51:05.071Z,65.96
2018-02-18T05:52:08.430Z,66.00
2018-02-18T05:53:11.824Z,66.04
2018-02-18T05:54:15.220Z,66.05
2018-02-18T05:55:18.744Z,66.08
2018-02-18T05:56:22.094Z,66.10
2018-02-18T05:57:25.472Z,66.12
2018-02-18T05:58:28.815Z,66.14
2018-02-18T05:59:32.163Z,66.16
2018-02-18T06:00:35.494Z,66.18
2018-02-18T06:01:38.865Z,66.21
2018-02-18T06:02:42.260Z,66.24
2018-02-18T06:03:45.589Z,66.28
2018-02-18T06:04:48.924Z,66.29
2018-02-18T06:05:52.345Z,66.30
2018-02-18T06:06:55.799Z,66.34
2018-02-18T06:07:59.251Z,66.36
2018-02-18T06:09:02.705Z,66.39
2018-02-18T06:10:06.145Z,66.38
2018-02-18T06:11:09.520Z,66.40
2018-02-18T06:12:12.813Z,66.45
2018-02-18T06:13:16.184Z,66.50
2018-02-18T06:14:19.537Z,66.53
2018-02-18T06:15:23.313Z,66.54
2018-02-18T06:16:26.909Z,66.56
2018-02-18T06:17:30.240Z,66.60
2018-02-18T06:18:33.572Z,66.62
2018-02-18T06:19:36.874Z,66.62
2018-02-18T06:20:40.480Z,66.64
2018-02-18T06:21:43.885Z,66.67
2018-02-18T06:22:47.305Z,66.69
2018-02-18T06:23:50.700Z,66.75
2018-02-18T06:24:54.029Z,66.77
2018-02-18T06:25:57.356Z,66.79
2018-02-18T06:27:00.778Z,66.82
2018-02-18T06:28:04.149Z,66.85
2018-02-18T06:29:07.521Z,66.89
2018-02-18T06:30:10.899Z,66.90
2018-02-18T06:31:14.282Z,66.97
2018-02-18T06:32:17.685Z,66.99
2018-02-18T06:33:21.209Z,67.01
2018-02-18T06:34:24.622Z,67.01
2018-02-18T06:35:27.984Z,67.06
2018-02-18T06:36:31.348Z,67.07
2018-02-18T06:37:34.909Z,67.09
2018-02-18T06:38:38.280Z,67.11
2018-02-18T06:39:41.607Z,67.12
2018-02-18T06:40:44.984Z,67.14
2018-02-18T06:41:48.339Z,67.14
2018-02-18T06:42:52.045Z,67.13
2018-02-18T06:43:55.356Z,67.14
2018-02-18T06:44:58.851Z,67.16
2018-02-18T06:46:02.193Z,67.18
2018-02-18T06:47:05.542Z,67.18
2018-02-18T06:48:08.899Z,67.19
2018-02-18T06:49:13.344Z,67.19
2018-02-18T06:50:16.805Z,67.23
2018-02-18T06:51:20.201Z,67.23
2018-02-18T06:52:23.533Z,67.26
2018-02-18T06:53:27.116Z,67.29
2018-02-18T06:54:31.313Z,67.33
2018-02-18T06:55:34.719Z,67.32
2018-02-18T06:56:38.028Z,67.31
2018-02-18T06:57:41.462Z,67.31
2018-02-18T06:58:44.810Z,67.32
2018-02-18T06:59:48.257Z,67.34
2018-02-18T07:00:51.900Z,67.34
2018-02-18T07:01:55.275Z,67.37
2018-02-18T07:02:58.656Z,67.39
2018-02-18T07:04:02.049Z,67.38
2018-02-18T07:05:05.512Z,67.41
2018-02-18T07:06:08.946Z,67.44
2018-02-18T07:07:12.297Z,67.44
2018-02-18T07:08:15.657Z,67.46
2018-02-18T07:09:19.238Z,67.48
2018-02-18T07:10:23.446Z,67.49
2018-02-18T07:11:26.885Z,67.47
2018-02-18T07:12:30.245Z,67.46
2018-02-18T07:13:33.604Z,67.48
2018-02-18T07:14:37.104Z,67.48
2018-02-18T07:15:41.399Z,67.48
2018-02-18T07:16:45.622Z,67.49
2018-02-18T07:17:48.964Z,67.51
2018-02-18T07:18:52.396Z,67.51
2018-02-18T07:19:56.506Z,67.52
2018-02-18T07:20:59.926Z,67.53
2018-02-18T07:22:03.385Z,67.52
2018-02-18T07:23:06.745Z,67.50
2018-02-18T07:24:10.097Z,67.50
2018-02-18T07:25:13.404Z,67.49
2018-02-18T07:26:16.723Z,67.48
2018-02-18T07:27:20.189Z,67.49
2018-02-18T07:28:23.713Z,67.50
2018-02-18T07:29:27.090Z,67.50
2018-02-18T07:30:30.419Z,67.48
2018-02-18T07:31:33.724Z,67.45
2018-02-18T07:32:37.107Z,67.42
2018-02-18T07:33:40.928Z,67.41
2018-02-18T07:34:44.321Z,67.39
2018-02-18T07:35:47.653Z,67.37
2018-02-18T07:36:50.948Z,67.38
2018-02-18T07:37:54.492Z,67.38
2018-02-18T07:38:58.626Z,67.38
2018-02-18T07:40:01.961Z,67.39
2018-02-18T07:41:05.587Z,67.38
2018-02-18T07:42:08.932Z,67.38
2018-02-18T07:43:12.281Z,67.38
2018-02-18T07:44:15.666Z,67.36
2018-02-18T07:45:19.140Z,67.35
2018-02-18T07:46:22.496Z,67.33
2018-02-18T07:47:25.896Z,67.33
2018-02-18T07:48:29.281Z,67.30
2018-02-18T07:49:32.699Z,67.27
2018-02-18T07:50:36.144Z,67.28
2018-02-18T07:51:39.519Z,67.28
2018-02-18T07:52:42.943Z,67.25
2018-02-18T07:53:46.376Z,67.23
2018-02-18T07:54:49.802Z,67.22
2018-02-18T07:55:53.216Z,67.19
2018-02-18T07:56:56.577Z,67.16
2018-02-18T07:57:59.899Z,67.14
2018-02-18T07:59:03.831Z,67.12
2018-02-18T08:00:07.285Z,67.10
2018-02-18T08:01:11.324Z,67.09
2018-02-18T08:02:14.704Z,67.08
2018-02-18T08:03:18.150Z,67.06
2018-02-18T08:04:21.542Z,67.05
2018-02-18T08:05:24.961Z,67.02
2018-02-18T08:06:28.351Z,67.00
2018-02-18T08:07:31.695Z,66.95
2018-02-18T08:08:35.019Z,66.90
2018-02-18T08:09:38.454Z,66.83
2018-02-18T08:10:41.751Z,66.78
2018-02-18T08:11:45.069Z,66.75
2018-02-18T08:12:48.508Z,66.70
2018-02-18T08:13:51.893Z,66.63
2018-02-18T08:14:55.379Z,66.57
2018-02-18T08:15:58.728Z,66.48
2018-02-18T08:17:02.072Z,66.39
2018-02-18T08:18:05.402Z,66.31
2018-02-18T08:19:08.839Z,66.27
2018-02-18T08:20:12.206Z,66.21
2018-02-18T08:21:15.869Z,66.12
2018-02-18T08:22:19.270Z,66.02
2018-02-18T08:23:22.732Z,65.97
2018-02-18T08:24:26.069Z,65.91
2018-02-18T08:25:29.461Z,65.87
2018-02-18T08:26:32.881Z,65.83
2018-02-18T08:27:36.299Z,65.79
2018-02-18T08:28:39.643Z,65.77
2018-02-18T08:29:43.017Z,65.74
2018-02-18T08:30:46.386Z,65.71
2018-02-18T08:31:49.829Z,65.61
2018-02-18T08:32:53.274Z,65.50
2018-02-18T08:33:56.636Z,65.44
2018-02-18T08:35:00.024Z,65.38
2018-02-18T08:36:04.262Z,65.36
2018-02-18T08:37:08.632Z,65.35
2018-02-18T08:38:12.027Z,65.31
2018-02-18T08:39:15.458Z,65.29
2018-02-18T08:40:19.442Z,65.26
2018-02-18T08:41:23.429Z,65.21
2018-02-18T08:42:27.055Z,65.20
2018-02-18T08:43:31.536Z,65.16
2018-02-18T08:44:35.913Z,65.12
2018-02-18T08:45:39.523Z,65.04
2018-02-18T08:46:42.953Z,64.91
2018-02-18T08:47:46.935Z,64.84
2018-02-18T08:48:50.316Z,64.83
2018-02-18T08:49:54.414Z,64.79
2018-02-18T08:50:58.031Z,64.77
2018-02-18T08:52:01.404Z,64.75
2018-02-18T08:53:04.752Z,64.77
2018-02-18T08:54:08.137Z,64.78
2018-02-18T08:55:11.540Z,64.82
2018-02-18T08:56:15.113Z,64.85
2018-02-18T08:57:18.837Z,64.87
2018-02-18T08:58:22.189Z,64.87
2018-02-18T08:59:25.919Z,64.87
2018-02-18T09:00:29.265Z,64.91
2018-02-18T09:01:32.585Z,64.92
2018-02-18T09:02:35.989Z,64.91
2018-02-18T09:03:39.458Z,64.88
2018-02-18T09:04:42.842Z,64.86
2018-02-18T09:05:46.338Z,64.83
2018-02-18T09:06:49.709Z,64.80
2018-02-18T09:07:53.224Z,64.80
2018-02-18T09:08:56.804Z,64.76
2018-02-18T09:10:01.470Z,64.72
2018-02-18T09:11:04.818Z,64.65
2018-02-18T09:12:08.937Z,64.58
2018-02-18T09:13:12.335Z,64.58
2018-02-18T09:14:15.961Z,64.55
2018-02-18T09:15:19.414Z,64.55
2018-02-18T09:16:23.080Z,64.55
2018-02-18T09:17:26.478Z,64.54
2018-02-18T09:18:29.884Z,64.53
2018-02-18T09:19:34.183Z,64.54
2018-02-18T09:20:37.560Z,64.54
2018-02-18T09:21:40.883Z,64.50
2018-02-18T09:22:44.294Z,64.50
2018-02-18T09:23:47.754Z,64.53
2018-02-18T09:24:51.104Z,64.56
2018-02-18T09:25:54.488Z,64.54
2018-02-18T09:26:57.858Z,64.49
2018-02-18T09:28:01.208Z,64.45
2018-02-18T09:29:04.744Z,64.46
2018-02-18T09:30:08.683Z,64.44
2018-02-18T09:31:12.097Z,64.39
2018-02-18T09:32:15.688Z,64.36
2018-02-18T09:33:19.144Z,64.39
2018-02-18T09:34:22.900Z,64.41
2018-02-18T09:35:26.230Z,64.39
2018-02-18T09:36:29.790Z,64.38
2018-02-18T09:37:33.157Z,64.37
2018-02-18T09:38:36.618Z,64.35
2018-02-18T09:39:40.044Z,64.34
2018-02-18T09:40:43.508Z,64.36
2018-02-18T09:41:46.934Z,64.39
2018-02-18T09:42:50.345Z,64.40
2018-02-18T09:43:53.929Z,64.37
2018-02-18T09:44:57.368Z,64.34
2018-02-18T09:46:01.357Z,64.34
2018-02-18T09:47:05.610Z,64.34
2018-02-18T09:48:08.931Z,64.35
2018-02-18T09:49:12.260Z,64.34
2018-02-18T09:50:15.816Z,64.30
2018-02-18T09:51:19.155Z,64.27
2018-02-18T09:52:22.723Z,64.24
2018-02-18T09:53:26.099Z,64.20
2018-02-18T09:54:29.467Z,64.16
2018-02-18T09:55:32.832Z,64.13
2018-02-18T09:56:36.171Z,64.08
2018-02-18T09:57:39.568Z,64.11
2018-02-18T09:58:42.868Z,64.14
2018-02-18T09:59:46.419Z,64.15
2018-02-18T10:00:49.800Z,64.15
2018-02-18T10:01:53.413Z,64.10
2018-02-18T10:02:56.818Z,64.08
2018-02-18T10:04:00.238Z,64.06
2018-02-18T10:05:03.616Z,64.00
2018-02-18T10:06:06.956Z,63.97
2018-02-18T10:07:10.296Z,63.97
2018-02-18T10:08:15.637Z,63.95
2018-02-18T10:09:19.066Z,63.96
2018-02-18T10:10:22.403Z,63.92
2018-02-18T10:11:25.753Z,63.90
2018-02-18T10:12:29.098Z,63.90
2018-02-18T10:13:32.848Z,63.82
2018-02-18T10:14:36.172Z,63.76
2018-02-18T10:15:39.609Z,63.73
2018-02-18T10:16:43.032Z,63.71
2018-02-18T10:17:46.565Z,63.69
2018-02-18T10:18:50.147Z,63.60
2018-02-18T10:19:53.709Z,63.58
2018-02-18T10:20:57.108Z,63.55
2018-02-18T10:22:00.564Z,63.49
2018-02-18T10:23:03.902Z,63.43
2018-02-18T10:24:07.219Z,63.36
2018-02-18T10:25:10.583Z,63.30
2018-02-18T10:26:14.030Z,63.27
2018-02-18T10:27:17.574Z,63.23
2018-02-18T10:28:21.046Z,63.17
2018-02-18T10:29:24.341Z,63.15
2018-02-18T10:30:27.992Z,63.15
2018-02-18T10:31:31.244Z,63.12
2018-02-18T10:32:34.623Z,63.08
2018-02-18T10:33:38.055Z,63.04
2018-02-18T10:34:42.330Z,63.03
2018-02-18T10:35:45.714Z,63.04
2018-02-18T10:36:49.037Z,63.02
2018-02-18T10:37:52.536Z,63.00
2018-02-18T10:38:56.915Z,62.96
2018-02-18T10:40:00.249Z,62.94
2018-02-18T10:41:03.562Z,62.91
2018-02-18T10:42:06.926Z,62.91
2018-02-18T10:43:10.327Z,62.93
2018-02-18T10:44:13.949Z,62.90
2018-02-18T10:45:17.902Z,62.89
2018-02-18T10:46:21.783Z,62.88
2018-02-18T10:47:25.108Z,62.81
2018-02-18T10:48:28.481Z,62.78
2018-02-18T10:49:31.892Z,62.77
2018-02-18T10:50:35.453Z,62.73
2018-02-18T10:51:38.768Z,62.66
2018-02-18T10:52:42.171Z,62.58
2018-02-18T10:53:45.498Z,62.54
2018-02-18T10:54:49.806Z,62.51
2018-02-18T10:55:53.103Z,62.47
2018-02-18T10:56:56.497Z,62.42
2018-02-18T10:57:59.862Z,62.43
2018-02-18T10:59:03.229Z,62.41
2018-02-18T11:00:06.610Z,62.41
2018-02-18T11:01:09.984Z,62.40
2018-02-18T11:02:13.373Z,62.39
2018-02-18T11:03:16.801Z,62.41
2018-02-18T11:04:20.545Z,62.42
2018-02-18T11:05:23.913Z,62.37
2018-02-18T11:06:27.373Z,62.30
2018-02-18T11:07:30.846Z,62.23
2018-02-18T11:08:34.194Z,62.20
2018-02-18T11:09:37.699Z,62.20
2018-02-18T11:10:41.070Z,62.19
2018-02-18T11:11:44.443Z,62.21
2018-02-18T11:12:47.809Z,62.22
2018-02-18T11:13:52.139Z,62.21
2018-02-18T11:14:55.673Z,62.18
2018-02-18T11:15:59.247Z,62.15
2018-02-18T11:17:02.597Z,62.13
2018-02-18T11:18:06.763Z,62.10
2018-02-18T11:19:10.250Z,62.04
2018-02-18T11:20:13.827Z,62.03
2018-02-18T11:21:17.907Z,62.01
2018-02-18T11:22:22.299Z,61.98
2018-02-18T11:23:25.693Z,61.94
2018-02-18T11:24:29.005Z,61.85
2018-02-18T11:25:32.727Z,61.80
2018-02-18T11:26:36.128Z,61.78
2018-02-18T11:27:39.533Z,61.75
2018-02-18T11:28:43.031Z,61.73
2018-02-18T11:29:46.388Z,61.67
2018-02-18T11:30:49.740Z,61.67
2018-02-18T11:31:53.089Z,61.58
2018-02-18T11:32:56.422Z,61.54
2018-02-18T11:33:59.797Z,61.52
2018-02-18T11:35:03.143Z,61.51
2018-02-18T11:36:06.565Z,61.51
2018-02-18T11:37:09.869Z,61.54
2018-02-18T11:38:13.394Z,61.55
2018-02-18T11:39:16.697Z,61.48
2018-02-18T11:40:20.111Z,61.42
2018-02-18T11:41:23.552Z,61.34
2018-02-18T11:42:26.884Z,61.28
2018-02-18T11:43:30.260Z,61.23
2018-02-18T11:44:33.697Z,61.21
2018-02-18T11:45:37.011Z,61.18
2018-02-18T11:46:40.461Z,61.14
2018-02-18T11:47:43.792Z,61.11
2018-02-18T11:48:47.367Z,61.09
2018-02-18T11:49:50.798Z,61.03
2018-02-18T11:50:54.355Z,61.00
2018-02-18T11:51:57.852Z,60.98
2018-02-18T11:53:01.162Z,60.95
2018-02-18T11:54:04.706Z,60.90
2018-02-18T11:55:08.063Z,60.83
2018-02-18T11:56:11.525Z,60.78
2018-02-18T11:57:14.974Z,60.76
2018-02-18T11:58:18.493Z,60.74
2018-02-18T11:59:21.890Z,60.71
2018-02-18T12:00:25.468Z,60.72
2018-02-18T12:01:28.870Z,60.74
2018-02-18T12:02:32.216Z,60.74
2018-02-18T12:03:35.561Z,60.69
2018-02-18T12:04:38.962Z,60.64
2018-02-18T12:05:42.349Z,60.57
2018-02-18T12:06:45.818Z,60.55
2018-02-18T12:07:49.423Z,60.49
2018-02-18T12:08:52.909Z,60.44
2018-02-18T12:09:56.276Z,60.44
2018-02-18T12:10:59.698Z,60.40
2018-02-18T12:12:03.797Z,60.39
2018-02-18T12:13:07.506Z,60.40
2018-02-18T12:14:10.913Z,60.38
2018-02-18T12:15:14.339Z,60.36
2018-02-18T12:16:18.043Z,60.26
2018-02-18T12:17:21.427Z,60.21
2018-02-18T12:18:24.961Z,60.17
2018-02-18T12:19:28.466Z,60.13
2018-02-18T12:20:31.881Z,60.13
2018-02-18T12:21:35.179Z,60.03
2018-02-18T12:22:38.577Z,60.03
2018-02-18T12:23:41.940Z,59.94
2018-02-18T12:24:45.349Z,59.81
2018-02-18T12:25:48.651Z,59.76
2018-02-18T12:26:52.021Z,59.71
2018-02-18T12:27:55.430Z,59.72
2018-02-18T12:28:58.774Z,59.71
2018-02-18T12:30:02.181Z,59.73
2018-02-18T12:31:05.631Z,59.73
2018-02-18T12:32:09.093Z,59.73
2018-02-18T12:33:12.663Z,59.70
2018-02-18T12:34:19.027Z,59.68
2018-02-18T12:35:22.357Z,59.61
2018-02-18T12:36:26.505Z,59.59
2018-02-18T12:37:29.889Z,59.58
2018-02-18T12:38:33.259Z,59.54
2018-02-18T12:39:36.605Z,59.51
2018-02-18T12:40:40.110Z,59.47
2018-02-18T12:41:44.104Z,59.46
2018-02-18T12:42:47.565Z,59.44
2018-02-18T12:43:51.221Z,59.38
2018-02-18T12:44:57.592Z,59.35
2018-02-18T12:46:01.051Z,59.32
2018-02-18T12:47:04.512Z,59.24
2018-02-18T12:48:07.826Z,59.19
2018-02-18T12:49:11.173Z,59.10
2018-02-18T12:50:14.589Z,59.12
2018-02-18T12:51:18.235Z,59.14
2018-02-18T12:52:21.750Z,59.10
2018-02-18T12:53:25.090Z,59.00
2018-02-18T12:54:28.594Z,58.97
2018-02-18T12:55:32.157Z,58.94
2018-02-18T12:56:35.542Z,58.88
2018-02-18T12:57:39.320Z,58.88
2018-02-18T12:58:42.606Z,58.80
2018-02-18T12:59:46.021Z,58.69
2018-02-18T13:00:49.505Z,58.63
2018-02-18T13:01:52.921Z,58.61
2018-02-18T13:02:56.366Z,58.61
2018-02-18T13:03:59.748Z,58.59
2018-02-18T13:05:03.208Z,58.56
2018-02-18T13:06:06.681Z,58.56
2018-02-18T13:07:10.147Z,58.53
2018-02-18T13:08:13.498Z,58.51
2018-02-18T13:09:17.063Z,58.46
2018-02-18T13:10:20.568Z,58.47
2018-02-18T13:11:24.216Z,58.47
2018-02-18T13:12:27.622Z,58.45
2018-02-18T13:13:30.965Z,58.41
2018-02-18T13:14:34.282Z,58.33
2018-02-18T13:15:37.990Z,58.27
2018-02-18T13:16:41.454Z,58.23
2018-02-18T13:17:45.684Z,58.26
2018-02-18T13:18:49.328Z,58.26
2018-02-18T13:19:53.289Z,58.23
2018-02-18T13:20:56.728Z,58.18
2018-02-18T13:22:00.081Z,58.10
2018-02-18T13:23:03.516Z,58.03
2018-02-18T13:24:06.905Z,58.00
2018-02-18T13:25:10.281Z,57.97
2018-02-18T13:26:13.597Z,57.92
2018-02-18T13:27:17.153Z,57.90
2018-02-18T13:28:20.589Z,57.87
2018-02-18T13:29:24.446Z,57.84
2018-02-18T13:30:27.761Z,57.84
2018-02-18T13:31:31.073Z,57.77
2018-02-18T13:32:34.492Z,57.71
2018-02-18T13:33:38.007Z,57.70
2018-02-18T13:34:41.350Z,57.72
2018-02-18T13:35:44.699Z,57.72
2018-02-18T13:36:48.050Z,57.70
2018-02-18T13:37:51.547Z,57.68
2018-02-18T13:38:54.878Z,57.63